Time;durP1;ratioP1;P1;durP2;ratioP2;P2;SDS_P1;SDS_P2;PMS_P1;PMS_P2;Temp;Humidity;BMP_temperature;BMP_pressure;BME280_temperature;BME280_humidity;BME280_pressure;Samples;Min_cycle;Max_cycle;Signal;HPM_P1;HPM_P2
2024/01/07 00:00:35;;;;;;;11.55;5.60;;;0.50;99.90;;;;;;4884888;29;20147;-76
2024/01/07 00:03:00;;;;;;;7.85;4.13;;;0.40;99.90;;;;;;4884433;29;20055;-76
2024/01/07 00:05:27;;;;;;;9.15;5.05;;;0.50;99.90;;;;;;4901188;29;20436;-76
2024/01/07 00:07:52;;;;;;;10.10;4.55;;;0.40;99.90;;;;;;4884566;29;20071;-76
2024/01/07 00:10:18;;;;;;;13.35;5.75;;;0.40;99.90;;;;;;4884790;29;20053;-76
2024/01/07 00:12:48;;;;;;;7.78;4.03;;;0.30;99.90;;;;;;4884683;29;20056;-76
2024/01/07 00:15:13;;;;;;;10.70;4.38;;;0.20;99.90;;;;;;4884270;29;20167;-76
2024/01/07 00:17:39;;;;;;;8.80;4.15;;;0.20;99.90;;;;;;4884221;29;20131;-76
2024/01/07 00:20:06;;;;;;;6.18;2.90;;;0.20;99.90;;;;;;4884212;29;20048;-76
2024/01/07 00:22:31;;;;;;;8.85;3.83;;;0.10;99.90;;;;;;4884303;29;20127;-76
2024/01/07 00:24:57;;;;;;;10.93;3.95;;;0.00;99.90;;;;;;4884114;29;20461;-76
2024/01/07 00:27:22;;;;;;;9.70;4.22;;;0.10;99.90;;;;;;4884135;29;20059;-76
2024/01/07 00:29:48;;;;;;;8.27;3.22;;;0.00;99.90;;;;;;4884082;29;20037;-76
2024/01/07 00:32:14;;;;;;;10.18;3.85;;;0.00;99.90;;;;;;4884342;29;20120;-76
2024/01/07 00:34:39;;;;;;;5.78;2.75;;;0.00;99.90;;;;;;4883928;29;20052;-76
2024/01/07 00:37:05;;;;;;;7.00;3.20;;;0.10;99.90;;;;;;4884005;29;20492;-76
2024/01/07 00:39:31;;;;;;;11.13;4.28;;;0.10;99.90;;;;;;4884173;29;20037;-75
2024/01/07 00:41:56;;;;;;;7.53;3.45;;;0.10;99.90;;;;;;4884051;29;20048;-76
2024/01/07 00:44:22;;;;;;;9.23;4.32;;;0.10;99.90;;;;;;4883678;29;20048;-76
2024/01/07 00:46:47;;;;;;;8.60;3.13;;;0.20;99.90;;;;;;4883957;29;20048;-76
2024/01/07 00:49:13;;;;;;;5.80;3.70;;;0.20;99.90;;;;;;4883925;29;20446;-76
2024/01/07 00:51:39;;;;;;;6.20;3.08;;;0.20;99.90;;;;;;4883765;29;20053;-76
2024/01/07 00:54:04;;;;;;;7.90;3.08;;;0.20;99.90;;;;;;4883724;29;20059;-76
2024/01/07 00:56:30;;;;;;;9.80;3.60;;;0.20;99.90;;;;;;4883621;29;20123;-76
2024/01/07 00:58:55;;;;;;;11.65;4.35;;;0.20;99.90;;;;;;4900253;29;20100;-76
2024/01/07 01:01:22;;;;;;;11.95;5.00;;;0.20;99.90;;;;;;4900346;29;20400;-76
2024/01/07 01:03:49;;;;;;;7.63;4.43;;;0.30;99.90;;;;;;4883205;29;20107;-76
2024/01/07 01:06:14;;;;;;;8.45;4.10;;;0.30;99.90;;;;;;4883216;29;20401;-76
2024/01/07 01:08:40;;;;;;;9.38;3.90;;;0.20;99.90;;;;;;4883426;29;20160;-76
2024/01/07 01:11:08;;;;;;;14.10;4.80;;;0.30;99.90;;;;;;4883360;29;20131;-76
2024/01/07 01:13:34;;;;;;;9.00;3.92;;;0.20;99.90;;;;;;4883366;29;20064;-76
2024/01/07 01:15:59;;;;;;;6.60;3.60;;;0.20;99.90;;;;;;4883204;29;20052;-76
2024/01/07 01:18:25;;;;;;;11.75;5.07;;;0.20;99.90;;;;;;4883385;29;20052;-76
2024/01/07 01:20:51;;;;;;;10.02;4.85;;;0.20;99.90;;;;;;4883192;29;20079;-76
2024/01/07 01:23:16;;;;;;;10.82;4.00;;;0.20;99.90;;;;;;4883228;29;20050;-76
2024/01/07 01:25:42;;;;;;;8.05;4.13;;;0.20;99.90;;;;;;4883311;29;20388;-76
2024/01/07 01:28:07;;;;;;;11.52;4.30;;;0.10;99.90;;;;;;4882889;29;20093;-76
2024/01/07 01:30:33;;;;;;;8.40;4.05;;;0.20;99.90;;;;;;4883208;29;20063;-76
2024/01/07 01:32:58;;;;;;;10.18;4.22;;;0.20;99.90;;;;;;4883184;29;20444;-76
2024/01/07 01:35:24;;;;;;;10.15;4.72;;;0.20;99.90;;;;;;4882946;29;20135;-76
2024/01/07 01:37:50;;;;;;;11.98;3.97;;;0.20;99.90;;;;;;4882616;29;20052;-76
2024/01/07 01:40:17;;;;;;;12.27;4.63;;;0.30;99.90;;;;;;4882859;29;20048;-76
2024/01/07 01:42:47;;;;;;;8.35;3.50;;;0.20;99.90;;;;;;4882610;29;20076;-76
2024/01/07 01:45:16;;;;;;;7.03;3.88;;;0.20;99.90;;;;;;4882904;29;20059;-76
2024/01/07 01:47:43;;;;;;;9.07;3.97;;;0.20;99.90;;;;;;4882386;29;20056;-77
2024/01/07 01:50:10;;;;;;;7.82;4.10;;;0.20;99.90;;;;;;4882698;29;20044;-76
2024/01/07 01:52:36;;;;;;;10.20;3.90;;;0.20;99.90;;;;;;4882551;29;20037;-77
2024/01/07 01:55:05;;;;;;;9.60;4.15;;;0.20;99.90;;;;;;4882465;29;20047;-76
2024/01/07 01:57:37;;;;;;;8.70;3.95;;;0.10;99.90;;;;;;4882685;29;20108;-76
2024/01/07 02:00:04;;;;;;;8.27;3.97;;;0.20;99.90;;;;;;4882678;29;20131;-76
2024/01/07 02:02:36;;;;;;;8.65;3.63;;;0.10;99.90;;;;;;4899188;29;20078;-76
2024/01/07 02:05:06;;;;;;;8.80;4.03;;;0.10;99.90;;;;;;4882155;29;20496;-76
2024/01/07 02:07:31;;;;;;;9.55;3.45;;;0.10;99.90;;;;;;4882398;29;20052;-76
2024/01/07 02:09:57;;;;;;;12.45;3.67;;;0.10;99.90;;;;;;4882214;29;20055;-76
2024/01/07 02:12:22;;;;;;;7.72;3.25;;;0.20;99.90;;;;;;4882494;29;20100;-76
2024/01/07 02:14:48;;;;;;;6.25;3.22;;;0.10;99.90;;;;;;4881724;29;20063;-76
2024/01/07 02:17:15;;;;;;;8.38;4.25;;;0.10;99.90;;;;;;4882523;29;20048;-76
2024/01/07 02:19:40;;;;;;;4.47;2.35;;;0.10;99.90;;;;;;4882469;29;20052;-76
2024/01/07 02:22:06;;;;;;;9.38;2.97;;;0.10;99.90;;;;;;4882053;29;20049;-76
2024/01/07 02:24:32;;;;;;;7.95;3.47;;;0.20;99.90;;;;;;4882225;29;20060;-76
2024/01/07 02:27:02;;;;;;;7.93;2.97;;;0.20;99.90;;;;;;4882034;29;20075;-76
2024/01/07 02:29:28;;;;;;;9.30;3.15;;;0.20;99.90;;;;;;4882326;29;20107;-76
2024/01/07 02:31:53;;;;;;;7.00;3.40;;;0.20;99.90;;;;;;4882307;29;20567;-76
2024/01/07 02:34:19;;;;;;;9.13;2.75;;;0.20;99.90;;;;;;4898819;29;20131;-76
2024/01/07 02:36:45;;;;;;;5.68;2.42;;;0.30;99.90;;;;;;4882087;29;20115;-76
2024/01/07 02:39:10;;;;;;;6.20;2.78;;;0.30;99.90;;;;;;4882109;29;20044;-76
2024/01/07 02:41:36;;;;;;;6.70;2.90;;;0.30;99.90;;;;;;4881773;29;20048;-76
2024/01/07 02:44:01;;;;;;;7.57;2.53;;;0.40;99.90;;;;;;4881855;29;20048;-76
2024/01/07 02:46:27;;;;;;;6.22;2.60;;;0.40;99.90;;;;;;4881889;29;20115;-76
2024/01/07 02:48:53;;;;;;;6.32;2.70;;;0.40;99.90;;;;;;4881985;29;20052;-76
2024/01/07 02:51:19;;;;;;;5.05;2.53;;;0.40;99.90;;;;;;4881695;29;20457;-76
2024/01/07 02:53:44;;;;;;;7.32;2.50;;;0.40;99.90;;;;;;4881983;29;20109;-75
2024/01/07 02:56:10;;;;;;;5.90;3.00;;;0.40;99.90;;;;;;4881988;29;20064;-76
2024/01/07 02:58:36;;;;;;;12.05;2.60;;;0.40;99.90;;;;;;4881633;29;20457;-76
2024/01/07 03:01:01;;;;;;;6.93;2.75;;;0.40;99.90;;;;;;4882010;29;20051;-76
2024/01/07 03:03:28;;;;;;;5.38;2.42;;;0.40;99.90;;;;;;4881551;29;20143;-76
2024/01/07 03:05:53;;;;;;;5.72;2.50;;;0.40;99.90;;;;;;4881558;29;20096;-76
2024/01/07 03:08:22;;;;;;;7.03;2.33;;;0.50;99.90;;;;;;4881725;29;20158;-76
2024/01/07 03:10:47;;;;;;;4.25;2.05;;;0.40;99.90;;;;;;4881663;29;20154;-76
2024/01/07 03:13:13;;;;;;;4.55;2.25;;;0.50;99.90;;;;;;4881592;29;20136;-76
2024/01/07 03:15:38;;;;;;;6.13;2.95;;;0.50;99.90;;;;;;4881621;29;20040;-76
2024/01/07 03:18:04;;;;;;;6.70;2.30;;;0.50;99.90;;;;;;4881943;29;20056;-76
2024/01/07 03:20:30;;;;;;;3.90;2.50;;;0.50;99.90;;;;;;4881324;29;20051;-76
2024/01/07 03:22:55;;;;;;;9.25;2.83;;;0.50;99.90;;;;;;4881464;29;20048;-76
2024/01/07 03:25:24;;;;;;;3.17;1.50;;;0.50;99.90;;;;;;4881688;29;20048;-76
2024/01/07 03:27:49;;;;;;;7.07;2.47;;;0.50;99.90;;;;;;4881386;29;20262;-76
2024/01/07 03:30:15;;;;;;;4.57;1.63;;;0.50;99.90;;;;;;4881759;29;20041;-75
2024/01/07 03:32:41;;;;;;;5.07;1.75;;;0.50;99.90;;;;;;4881196;29;20057;-76
2024/01/07 03:35:08;;;;;;;7.13;1.85;;;0.50;99.90;;;;;;4881544;29;20060;-75
2024/01/07 03:37:34;;;;;;;5.78;2.20;;;0.50;99.90;;;;;;4881514;29;20052;-75
2024/01/07 03:40:10;;;;;;;7.72;2.33;;;0.50;99.90;;;;;;4881567;29;20142;-76
2024/01/07 03:42:38;;;;;;;3.70;1.90;;;0.50;99.90;;;;;;4881497;29;20112;-76
2024/01/07 03:45:05;;;;;;;4.18;1.60;;;0.60;99.90;;;;;;4881363;29;20040;-75
2024/01/07 03:47:31;;;;;;;5.30;2.15;;;0.60;99.90;;;;;;4881181;29;20507;-76
2024/01/07 03:49:57;;;;;;;5.53;2.00;;;0.60;99.90;;;;;;4881460;29;20162;-76
2024/01/07 03:52:23;;;;;;;5.22;1.88;;;0.60;99.90;;;;;;4881540;29;20072;-76
2024/01/07 03:54:48;;;;;;;5.45;1.98;;;0.60;99.90;;;;;;4881503;29;20053;-76
2024/01/07 03:57:14;;;;;;;5.68;2.00;;;0.60;99.90;;;;;;4881271;29;20053;-76
2024/01/07 03:59:39;;;;;;;8.55;2.10;;;0.60;99.90;;;;;;4882402;29;20052;-76
2024/01/07 04:02:06;;;;;;;6.63;2.90;;;0.60;99.90;;;;;;4884622;29;20049;-76
2024/01/07 04:04:31;;;;;;;6.68;2.38;;;0.60;99.90;;;;;;4881217;29;20057;-76
2024/01/07 04:06:57;;;;;;;6.13;1.98;;;0.60;99.90;;;;;;4866036;29;20528;-76
2024/01/07 04:09:22;;;;;;;4.05;1.85;;;0.60;99.90;;;;;;4866105;29;20049;-76
2024/01/07 04:11:49;;;;;;;9.00;2.28;;;0.60;99.90;;;;;;4865889;29;20045;-76
2024/01/07 04:14:17;;;;;;;4.43;1.77;;;0.60;99.90;;;;;;4866008;29;20060;-76
2024/01/07 04:16:43;;;;;;;3.90;2.10;;;0.60;99.90;;;;;;4865662;29;20048;-76
2024/01/07 04:19:09;;;;;;;9.30;3.05;;;0.60;99.90;;;;;;4865559;29;20044;-76
2024/01/07 04:21:35;;;;;;;4.28;1.63;;;0.60;99.90;;;;;;4865611;29;20048;-75
2024/01/07 04:24:01;;;;;;;5.32;2.00;;;0.70;99.90;;;;;;4865799;29;20059;-76
2024/01/07 04:26:27;;;;;;;3.75;1.70;;;0.60;99.90;;;;;;4865611;29;20053;-76
2024/01/07 04:28:52;;;;;;;4.22;2.28;;;0.60;99.90;;;;;;4865513;29;20508;-76
2024/01/07 04:31:18;;;;;;;7.63;2.47;;;0.60;99.90;;;;;;4865391;29;20136;-76
2024/01/07 04:33:43;;;;;;;7.40;2.10;;;0.60;99.90;;;;;;4865546;29;20048;-76
2024/01/07 04:36:12;;;;;;;2.95;1.70;;;0.60;99.90;;;;;;4865354;29;20478;-76
2024/01/07 04:38:40;;;;;;;9.93;2.42;;;0.60;99.90;;;;;;4865322;29;20548;-75
2024/01/07 04:41:07;;;;;;;7.38;1.60;;;0.60;99.90;;;;;;4865316;29;20145;-76
2024/01/07 04:43:38;;;;;;;6.07;2.47;;;0.70;99.90;;;;;;4865204;29;20124;-76
2024/01/07 04:46:04;;;;;;;3.38;1.40;;;0.60;99.90;;;;;;4865117;29;20101;-76
2024/01/07 04:48:30;;;;;;;6.35;1.83;;;0.60;99.90;;;;;;4865063;29;20045;-76
2024/01/07 04:50:55;;;;;;;7.93;1.55;;;0.60;99.90;;;;;;4865140;29;20057;-75
2024/01/07 04:53:21;;;;;;;3.85;1.60;;;0.60;99.90;;;;;;4865367;29;20064;-76
2024/01/07 04:55:47;;;;;;;5.10;2.10;;;0.60;99.90;;;;;;4864827;29;20041;-76
2024/01/07 04:58:12;;;;;;;4.88;2.15;;;0.60;99.90;;;;;;4881636;29;20481;-75
2024/01/07 05:00:38;;;;;;;4.28;1.73;;;0.60;99.90;;;;;;4865050;29;20052;-75
2024/01/07 05:03:06;;;;;;;4.85;1.75;;;0.60;99.90;;;;;;4864680;29;20071;-76
2024/01/07 05:05:36;;;;;;;7.97;1.95;;;0.60;99.90;;;;;;4864587;29;20149;-76
2024/01/07 05:08:02;;;;;;;4.18;1.70;;;0.60;99.90;;;;;;4881531;29;20049;-75
2024/01/07 05:10:28;;;;;;;3.17;1.25;;;0.60;99.90;;;;;;4864339;29;20041;-75
2024/01/07 05:12:53;;;;;;;2.80;1.60;;;0.70;99.90;;;;;;4864223;29;20049;-75
2024/01/07 05:15:19;;;;;;;3.20;1.42;;;0.60;99.90;;;;;;4881329;29;20442;-75
2024/01/07 05:17:44;;;;;;;3.63;1.70;;;0.60;99.90;;;;;;4864639;29;20056;-76
2024/01/07 05:20:10;;;;;;;7.70;1.95;;;0.70;99.90;;;;;;4864404;29;20049;-76
2024/01/07 05:22:36;;;;;;;3.67;1.50;;;0.60;99.90;;;;;;4864480;29;20072;-76
2024/01/07 05:25:02;;;;;;;4.75;1.38;;;0.60;99.90;;;;;;4881270;29;20076;-76
2024/01/07 05:27:28;;;;;;;4.65;1.40;;;0.60;99.90;;;;;;4864614;29;20389;-76
2024/01/07 05:29:55;;;;;;;5.88;1.67;;;0.60;99.90;;;;;;4864587;29;20076;-76
2024/01/07 05:32:23;;;;;;;3.63;1.35;;;0.60;99.90;;;;;;4864269;29;20049;-76
2024/01/07 05:34:50;;;;;;;4.10;1.38;;;0.60;99.90;;;;;;4864605;29;20057;-76
2024/01/07 05:37:16;;;;;;;3.83;1.40;;;0.60;99.90;;;;;;4880999;29;20065;-76
2024/01/07 05:39:41;;;;;;;6.30;1.40;;;0.60;99.90;;;;;;4864464;29;20056;-75
2024/01/07 05:42:07;;;;;;;3.20;1.15;;;0.60;99.90;;;;;;4864002;29;20508;-75
2024/01/07 05:44:32;;;;;;;3.38;1.42;;;0.60;99.90;;;;;;4864744;29;20136;-76
2024/01/07 05:46:58;;;;;;;3.25;1.52;;;0.60;99.90;;;;;;4880933;29;20389;-76
2024/01/07 05:49:24;;;;;;;4.75;2.08;;;0.60;99.90;;;;;;4864109;29;20109;-76
2024/01/07 05:51:49;;;;;;;3.03;1.70;;;0.60;99.90;;;;;;4880740;29;20057;-76
2024/01/07 05:54:15;;;;;;;4.70;2.17;;;0.60;99.90;;;;;;4864066;29;20148;-76
2024/01/07 05:56:41;;;;;;;4.93;1.90;;;0.60;99.90;;;;;;4863822;29;20048;-76
2024/01/07 05:59:16;;;;;;;9.73;2.20;;;0.60;99.90;;;;;;4864119;29;20449;-76
2024/01/07 06:01:42;;;;;;;4.53;2.17;;;0.60;99.90;;;;;;4864050;29;20105;-76
2024/01/07 06:04:11;;;;;;;5.13;2.05;;;0.60;99.90;;;;;;4863574;29;20100;-76
2024/01/07 06:06:36;;;;;;;5.03;2.25;;;0.60;99.90;;;;;;4863851;29;20053;-76
2024/01/07 06:09:02;;;;;;;4.82;2.10;;;0.50;99.90;;;;;;4864029;29;20068;-76
2024/01/07 06:11:28;;;;;;;3.97;1.98;;;0.50;99.90;;;;;;4863779;29;20041;-76
2024/01/07 06:13:53;;;;;;;3.28;1.48;;;0.50;99.90;;;;;;4880353;29;20402;-76
2024/01/07 06:16:19;;;;;;;4.47;1.90;;;0.50;99.90;;;;;;4863700;29;20430;-76
2024/01/07 06:18:45;;;;;;;4.55;1.90;;;0.40;99.90;;;;;;4863882;29;20048;-76
2024/01/07 06:21:11;;;;;;;4.90;1.75;;;0.40;99.90;;;;;;4863635;29;20041;-75
2024/01/07 06:23:37;;;;;;;3.67;1.73;;;0.50;99.90;;;;;;4879837;29;20093;-76
2024/01/07 06:26:05;;;;;;;3.53;1.60;;;0.40;99.90;;;;;;4863714;29;20045;-75
2024/01/07 06:28:32;;;;;;;4.43;1.25;;;0.50;99.90;;;;;;4863461;29;20053;-76
2024/01/07 06:30:58;;;;;;;3.22;1.85;;;0.50;99.90;;;;;;4863656;29;20059;-76
2024/01/07 06:33:23;;;;;;;5.70;1.83;;;0.40;99.90;;;;;;4880215;29;20040;-76
2024/01/07 06:35:49;;;;;;;4.50;2.03;;;0.40;99.90;;;;;;4863447;29;20063;-76
2024/01/07 06:38:15;;;;;;;4.47;1.60;;;0.50;99.90;;;;;;4863694;29;20061;-76
2024/01/07 06:40:40;;;;;;;3.58;1.70;;;0.40;99.90;;;;;;4863223;29;20053;-76
2024/01/07 06:43:06;;;;;;;3.45;1.70;;;0.40;99.90;;;;;;4863194;29;20052;-76
2024/01/07 06:45:32;;;;;;;7.80;1.80;;;0.40;99.90;;;;;;4863299;29;20409;-76
2024/01/07 06:47:58;;;;;;;3.40;2.00;;;0.40;99.90;;;;;;4863249;29;20076;-76
2024/01/07 06:50:26;;;;;;;5.88;2.22;;;0.30;99.90;;;;;;4863543;29;20489;-75
2024/01/07 06:52:51;;;;;;;7.07;2.92;;;0.30;99.90;;;;;;4863469;29;20548;-76
2024/01/07 06:55:17;;;;;;;5.78;2.05;;;0.20;99.90;;;;;;4863109;29;20136;-76
2024/01/07 06:57:43;;;;;;;5.63;2.25;;;0.30;99.90;;;;;;4863369;29;20061;-76
2024/01/07 07:00:09;;;;;;;6.40;3.20;;;0.30;99.90;;;;;;4863086;29;20382;-76
2024/01/07 07:02:34;;;;;;;6.95;2.70;;;0.20;99.90;;;;;;4863186;29;20132;-76
2024/01/07 07:05:03;;;;;;;6.38;2.13;;;0.20;99.90;;;;;;4862893;29;20057;-75
2024/01/07 07:07:28;;;;;;;3.90;1.52;;;0.20;99.90;;;;;;4862932;29;20122;-76
2024/01/07 07:09:54;;;;;;;4.65;2.05;;;0.20;99.90;;;;;;4862913;29;20052;-76
2024/01/07 07:12:22;;;;;;;4.65;1.73;;;0.10;99.90;;;;;;4863009;29;20049;-75
2024/01/07 07:14:48;;;;;;;5.72;2.10;;;0.10;99.90;;;;;;4863002;29;20041;-76
2024/01/07 07:17:15;;;;;;;7.03;2.10;;;0.10;99.90;;;;;;4863148;29;20051;-76
2024/01/07 07:19:40;;;;;;;9.45;3.30;;;0.10;99.90;;;;;;4863032;29;20073;-76
2024/01/07 07:22:06;;;;;;;7.03;3.00;;;0.10;99.90;;;;;;4862767;29;20048;-75
2024/01/07 07:24:34;;;;;;;5.75;3.45;;;0.10;99.90;;;;;;4863070;29;20049;-76
2024/01/07 07:27:00;;;;;;;6.35;2.55;;;0.10;99.90;;;;;;4862917;29;20156;-76
2024/01/07 07:29:25;;;;;;;3.53;2.05;;;0.10;99.90;;;;;;4862925;29;20052;-75
2024/01/07 07:31:51;;;;;;;7.00;2.03;;;0.20;99.90;;;;;;4863254;29;20081;-76
2024/01/07 07:34:16;;;;;;;4.10;2.88;;;0.20;99.90;;;;;;4863250;29;20389;-75
2024/01/07 07:36:44;;;;;;;5.95;2.53;;;0.10;99.90;;;;;;4866475;29;20136;-76
2024/01/07 07:39:14;;;;;;;7.55;2.53;;;0.10;99.90;;;;;;4866262;29;20060;-76
2024/01/07 07:41:39;;;;;;;7.50;2.90;;;0.10;99.90;;;;;;4866141;29;20087;-76
2024/01/07 07:44:05;;;;;;;4.22;2.00;;;0.10;99.90;;;;;;4866521;29;20084;-76
2024/01/07 07:46:30;;;;;;;7.10;2.45;;;0.20;99.90;;;;;;4866506;29;20049;-76
2024/01/07 07:48:56;;;;;;;5.38;2.25;;;0.20;99.90;;;;;;4866518;29;20093;-75
2024/01/07 07:51:22;;;;;;;13.43;6.03;;;0.20;99.90;;;;;;4865910;29;20072;-76
2024/01/07 07:53:47;;;;;;;8.05;2.95;;;0.20;99.90;;;;;;4866067;29;20074;-76
2024/01/07 07:56:13;;;;;;;9.18;4.57;;;0.20;99.90;;;;;;4866077;29;20052;-75
2024/01/07 07:58:39;;;;;;;5.55;2.58;;;0.20;99.90;;;;;;4866218;29;20057;-76
2024/01/07 08:01:05;;;;;;;6.65;3.38;;;0.20;99.90;;;;;;4866092;29;20049;-76
2024/01/07 08:03:34;;;;;;;4.88;2.67;;;0.20;99.90;;;;;;4865634;29;20144;-75
2024/01/07 08:06:13;;;;;;;7.10;4.20;;;0.30;99.90;;;;;;4865665;29;20052;-75
2024/01/07 08:08:39;;;;;;;5.30;2.60;;;0.20;99.90;;;;;;4865611;29;20052;-76
2024/01/07 08:11:07;;;;;;;5.18;2.25;;;0.30;99.90;;;;;;4865575;29;20041;-76
2024/01/07 08:13:36;;;;;;;7.57;3.60;;;0.30;99.90;;;;;;4865698;29;20053;-75
2024/01/07 08:16:01;;;;;;;8.15;4.25;;;0.20;99.90;;;;;;4865529;29;20084;-75
2024/01/07 08:18:28;;;;;;;5.00;2.60;;;0.20;99.90;;;;;;4865304;29;20135;-76
2024/01/07 08:20:54;;;;;;;6.63;3.63;;;0.30;99.90;;;;;;4864833;29;20105;-76
2024/01/07 08:23:19;;;;;;;6.07;2.90;;;0.30;99.90;;;;;;4864904;29;20461;-76
2024/01/07 08:25:45;;;;;;;7.60;3.97;;;0.30;99.90;;;;;;4865390;29;20065;-76
2024/01/07 08:28:11;;;;;;;7.35;3.50;;;0.30;99.90;;;;;;4865508;29;20049;-75
2024/01/07 08:30:36;;;;;;;9.82;4.40;;;0.30;99.90;;;;;;4865322;29;20080;-76
2024/01/07 08:33:05;;;;;;;9.25;3.78;;;0.30;99.90;;;;;;4865311;29;20044;-76
2024/01/07 08:35:30;;;;;;;5.38;3.30;;;0.40;99.90;;;;;;4865495;29;20059;-76
2024/01/07 08:37:57;;;;;;;6.88;2.90;;;0.30;99.90;;;;;;4865218;29;20064;-76
2024/01/07 08:40:23;;;;;;;7.82;3.35;;;0.40;99.90;;;;;;4865283;29;20048;-76
2024/01/07 08:42:48;;;;;;;5.68;2.92;;;0.40;99.90;;;;;;4865235;29;20053;-76
2024/01/07 08:45:16;;;;;;;7.47;2.50;;;0.40;99.90;;;;;;4865086;29;20052;-76
2024/01/07 08:47:42;;;;;;;5.15;2.25;;;0.40;99.90;;;;;;4865056;29;20409;-76
2024/01/07 08:50:11;;;;;;;5.57;2.65;;;0.40;99.90;;;;;;4864917;29;20045;-76
2024/01/07 08:52:36;;;;;;;5.43;2.42;;;0.40;99.90;;;;;;4864893;29;20461;-75
2024/01/07 08:55:05;;;;;;;4.28;2.45;;;0.40;99.90;;;;;;4864944;29;20480;-75
2024/01/07 08:57:31;;;;;;;6.25;3.17;;;0.40;99.90;;;;;;4864762;29;20461;-76
2024/01/07 08:59:57;;;;;;;5.63;3.63;;;0.40;99.90;;;;;;4865009;29;20548;-76
2024/01/07 09:02:22;;;;;;;10.80;3.58;;;0.40;99.90;;;;;;4861533;29;20048;-76
2024/01/07 09:04:52;;;;;;;4.55;2.38;;;0.50;99.90;;;;;;4853946;29;20080;-77
2024/01/07 09:07:19;;;;;;;8.30;2.80;;;0.50;99.90;;;;;;4846292;29;20045;-78
2024/01/07 09:09:47;;;;;;;7.28;3.15;;;0.50;99.90;;;;;;4846182;29;20062;-76
2024/01/07 09:12:13;;;;;;;5.40;2.65;;;0.50;99.90;;;;;;4846115;29;20137;-75
2024/01/07 09:14:39;;;;;;;7.55;2.85;;;0.50;99.90;;;;;;4845862;29;20140;-75
2024/01/07 09:17:04;;;;;;;4.05;2.30;;;0.50;99.90;;;;;;4846002;29;20053;-75
2024/01/07 09:19:30;;;;;;;7.57;2.50;;;0.50;99.90;;;;;;4845802;29;20402;-75
2024/01/07 09:21:55;;;;;;;6.53;2.75;;;0.50;99.90;;;;;;4845676;29;20056;-75
2024/01/07 09:24:21;;;;;;;6.60;2.83;;;0.50;99.90;;;;;;4845519;29;20085;-75
2024/01/07 09:26:47;;;;;;;8.05;2.63;;;0.50;99.90;;;;;;4845685;29;20049;-75
2024/01/07 09:29:13;;;;;;;6.70;2.33;;;0.60;99.90;;;;;;4845904;29;20057;-75
2024/01/07 09:31:39;;;;;;;7.13;4.10;;;0.50;99.90;;;;;;4845935;29;20081;-75
2024/01/07 09:34:06;;;;;;;8.80;3.58;;;0.50;99.90;;;;;;4845432;29;20413;-75
2024/01/07 09:36:32;;;;;;;5.63;2.50;;;0.50;99.90;;;;;;4845709;29;20053;-75
2024/01/07 09:38:58;;;;;;;5.35;2.75;;;0.60;99.90;;;;;;4845499;29;20056;-75
2024/01/07 09:41:24;;;;;;;4.35;2.40;;;0.50;99.90;;;;;;4845514;29;20046;-75
2024/01/07 09:43:52;;;;;;;4.80;2.85;;;0.60;99.90;;;;;;4845319;29;20052;-75
2024/01/07 09:46:17;;;;;;;6.65;2.40;;;0.50;99.90;;;;;;4845558;29;20056;-75
2024/01/07 09:48:43;;;;;;;7.47;2.60;;;0.60;99.90;;;;;;4845522;29;20061;-75
2024/01/07 09:51:11;;;;;;;6.78;2.60;;;0.60;99.90;;;;;;4845366;29;20057;-77
2024/01/07 09:53:40;;;;;;;4.93;2.70;;;0.60;99.90;;;;;;4845208;29;20089;-77
2024/01/07 09:56:20;;;;;;;4.72;2.10;;;0.60;99.90;;;;;;4845291;29;20058;-77
2024/01/07 09:58:49;;;;;;;5.40;2.80;;;0.60;99.90;;;;;;4844694;29;20128;-77
2024/01/07 10:01:17;;;;;;;6.47;2.28;;;0.60;99.90;;;;;;4861765;29;20110;-77
2024/01/07 10:03:43;;;;;;;5.25;1.73;;;0.70;99.90;;;;;;4844849;29;20593;-76
2024/01/07 10:06:10;;;;;;;4.40;2.30;;;0.70;99.90;;;;;;4861920;29;20054;-75
2024/01/07 10:08:35;;;;;;;7.32;4.15;;;0.70;99.90;;;;;;4844912;29;20053;-78
2024/01/07 10:11:02;;;;;;;8.10;2.67;;;0.70;99.90;;;;;;4844786;29;20054;-77
2024/01/07 10:13:28;;;;;;;4.80;2.65;;;0.80;99.90;;;;;;4861845;29;20120;-76
2024/01/07 10:15:54;;;;;;;5.32;2.28;;;0.70;99.90;;;;;;4845114;29;20061;-77
2024/01/07 10:18:20;;;;;;;5.60;2.38;;;0.80;99.90;;;;;;4844773;29;20041;-77
2024/01/07 10:20:46;;;;;;;6.10;2.67;;;0.80;99.90;;;;;;4844844;29;20098;-75
2024/01/07 10:23:12;;;;;;;9.10;2.67;;;0.80;99.90;;;;;;4854633;29;20053;-76
2024/01/07 10:25:37;;;;;;;8.18;2.72;;;0.90;99.90;;;;;;4879734;29;20408;-77
2024/01/07 10:28:04;;;;;;;5.00;2.72;;;0.80;99.90;;;;;;4863127;29;20129;-77
2024/01/07 10:30:29;;;;;;;7.18;2.35;;;0.90;99.90;;;;;;4862833;29;20477;-78
2024/01/07 10:32:59;;;;;;;6.85;2.47;;;1.00;99.90;;;;;;4863060;29;20045;-77
2024/01/07 10:35:35;;;;;;;4.70;2.47;;;1.10;99.90;;;;;;4863045;29;20052;-77
2024/01/07 10:38:02;;;;;;;5.20;2.05;;;1.10;99.90;;;;;;4863223;29;20049;-76
2024/01/07 10:40:30;;;;;;;5.43;2.50;;;1.20;99.90;;;;;;4863015;29;20572;-77
2024/01/07 10:42:56;;;;;;;6.30;2.40;;;1.10;99.90;;;;;;4862834;29;20060;-77
2024/01/07 10:45:22;;;;;;;4.65;2.05;;;1.10;99.90;;;;;;4879648;29;20056;-77
2024/01/07 10:47:50;;;;;;;7.68;2.30;;;1.20;99.90;;;;;;4862867;29;20091;-76
2024/01/07 10:50:17;;;;;;;9.18;2.78;;;1.20;99.90;;;;;;4862904;29;20084;-77
2024/01/07 10:52:48;;;;;;;3.83;1.80;;;1.20;99.90;;;;;;4862837;29;20124;-76
2024/01/07 10:55:17;;;;;;;5.95;2.08;;;1.30;99.90;;;;;;4879699;29;20101;-77
2024/01/07 10:57:47;;;;;;;6.95;3.20;;;1.30;99.90;;;;;;4862899;29;20040;-77
2024/01/07 11:00:19;;;;;;;5.43;2.40;;;1.40;99.90;;;;;;4863152;29;20052;-77
2024/01/07 11:03:02;;;;;;;4.18;2.22;;;1.40;99.90;;;;;;4862633;29;20061;-77
2024/01/07 11:05:40;;;;;;;7.20;3.05;;;1.40;99.90;;;;;;4862619;29;20057;-77
2024/01/07 11:08:41;;;;;;;4.97;2.53;;;1.50;99.90;;;;;;4862538;29;20432;-77
2024/01/07 11:11:16;;;;;;;9.50;2.97;;;1.60;99.90;;;;;;4865890;29;20450;-76
2024/01/07 11:13:41;;;;;;;6.97;2.30;;;1.60;99.90;;;;;;4866774;29;20045;-77
2024/01/07 11:16:11;;;;;;;5.13;2.72;;;1.70;99.90;;;;;;4866314;29;20409;-77
2024/01/07 11:18:50;;;;;;;6.80;2.45;;;1.70;99.90;;;;;;4882407;29;20392;-77
2024/01/07 11:21:26;;;;;;;8.00;3.25;;;1.60;99.90;;;;;;4885117;29;20144;-77
2024/01/07 11:23:53;;;;;;;6.35;3.05;;;1.60;99.90;;;;;;4884807;29;20060;-77
2024/01/07 11:26:20;;;;;;;5.43;3.03;;;1.50;99.90;;;;;;4885138;29;20091;-77
2024/01/07 11:28:51;;;;;;;6.18;2.67;;;1.60;99.90;;;;;;4884848;29;20040;-77
2024/01/07 11:31:19;;;;;;;5.32;2.63;;;1.60;99.90;;;;;;4885125;29;20160;-77
2024/01/07 11:33:49;;;;;;;5.63;2.33;;;1.60;99.90;;;;;;4884966;29;20092;-77
2024/01/07 11:36:16;;;;;;;9.70;3.00;;;1.60;99.90;;;;;;4866454;29;20044;-77
2024/01/07 11:38:48;;;;;;;3.92;2.00;;;1.70;99.90;;;;;;4897192;29;20049;-77
2024/01/07 11:41:15;;;;;;;6.10;2.10;;;1.60;99.90;;;;;;4897414;29;20446;-76
2024/01/07 11:44:01;;;;;;;4.53;1.95;;;1.60;99.90;;;;;;4896991;29;20332;-75
2024/01/07 11:46:32;;;;;;;9.02;2.90;;;1.60;99.90;;;;;;4896935;29;20056;-76
2024/01/07 11:48:59;;;;;;;4.40;2.10;;;1.80;99.90;;;;;;4897271;29;20049;-76
2024/01/07 11:51:31;;;;;;;5.80;2.13;;;1.70;99.90;;;;;;4897039;29;20114;-76
2024/01/07 11:53:58;;;;;;;4.93;1.95;;;1.70;99.90;;;;;;4897375;29;20044;-77
2024/01/07 11:56:28;;;;;;;4.43;1.88;;;1.80;99.90;;;;;;4897045;29;20041;-79
2024/01/07 11:58:57;;;;;;;5.82;1.83;;;1.80;99.90;;;;;;4874973;29;20045;-75
2024/01/07 12:01:32;;;;;;;4.03;1.50;;;1.90;99.90;;;;;;4847195;29;20057;-77
2024/01/07 12:03:58;;;;;;;5.25;1.60;;;1.90;99.90;;;;;;4846889;29;20140;-76
2024/01/07 12:06:24;;;;;;;5.78;1.50;;;1.80;99.90;;;;;;4847404;29;20141;-77
2024/01/07 12:08:50;;;;;;;3.35;1.60;;;1.90;99.90;;;;;;4847324;29;20147;-76
2024/01/07 12:11:16;;;;;;;5.38;1.42;;;1.90;99.90;;;;;;4847259;29;20454;-75
2024/01/07 12:13:42;;;;;;;3.38;1.50;;;1.90;99.90;;;;;;4847232;29;20050;-75
2024/01/07 12:16:10;;;;;;;4.35;1.85;;;1.80;99.90;;;;;;4846967;29;20052;-75
2024/01/07 12:18:39;;;;;;;4.43;1.65;;;1.80;99.90;;;;;;4846943;29;20046;-75
2024/01/07 12:21:05;;;;;;;5.93;1.80;;;1.80;99.90;;;;;;4846618;29;20192;-76
2024/01/07 12:23:36;;;;;;;4.22;1.58;;;1.80;99.90;;;;;;4846746;29;20161;-76
2024/01/07 12:26:09;;;;;;;5.80;1.75;;;1.70;99.90;;;;;;4846944;29;20045;-76
2024/01/07 12:28:36;;;;;;;5.75;1.83;;;1.70;99.90;;;;;;4863208;29;20401;-76
2024/01/07 12:31:03;;;;;;;5.57;2.83;;;1.70;99.90;;;;;;4847008;29;20053;-76
2024/01/07 12:33:31;;;;;;;7.13;2.50;;;1.70;99.90;;;;;;4847168;29;20080;-76
2024/01/07 12:35:57;;;;;;;8.43;4.18;;;1.80;99.90;;;;;;4847023;29;20147;-76
2024/01/07 12:38:26;;;;;;;6.03;3.17;;;1.80;99.90;;;;;;4846680;29;20100;-76
2024/01/07 12:40:58;;;;;;;8.10;3.15;;;1.80;99.90;;;;;;4846748;29;20468;-76
2024/01/07 12:43:24;;;;;;;10.23;3.90;;;1.80;99.90;;;;;;4846692;29;20053;-76
2024/01/07 12:45:50;;;;;;;5.85;2.50;;;1.90;99.90;;;;;;4863443;29;20045;-76
2024/01/07 12:48:19;;;;;;;3.90;2.05;;;1.90;99.90;;;;;;4846745;29;20398;-76
2024/01/07 12:50:44;;;;;;;5.88;2.72;;;1.80;99.90;;;;;;4846814;29;20076;-76
2024/01/07 12:53:10;;;;;;;7.47;2.55;;;1.80;99.90;;;;;;4846597;29;20506;-76